Time;durP1;ratioP1;P1;durP2;ratioP2;P2;SDS_P1;SDS_P2;PMS_P1;PMS_P2;Temp;Humidity;BMP_temperature;BMP_pressure;BME280_temperature;BME280_humidity;BME280_pressure;Samples;Min_cycle;Max_cycle;Signal;HPM_P1;HPM_P2
2022/04/13 00:02:08;;;;;;;23.80;15.18;;;;;;;;;;5047007;28;20105;-81
2022/04/13 00:04:34;;;;;;;22.45;15.10;;;;;;;;;;5066210;28;20033;-82
2022/04/13 00:07:00;;;;;;;28.00;15.27;;;;;;;;;;5046586;28;20041;-82
2022/04/13 00:09:26;;;;;;;24.40;15.55;;;;;;;;;;5066908;28;20107;-82
2022/04/13 00:11:54;;;;;;;24.50;15.98;;;;;;;;;;5038722;28;20052;-82
2022/04/13 00:14:23;;;;;;;26.48;14.90;;;;;;;;;;5061319;28;20035;-81
2022/04/13 00:16:54;;;;;;;21.33;14.70;;;;;;;;;;5046093;28;20032;-82
2022/04/13 00:19:21;;;;;;;24.95;13.60;;;;;;;;;;5060044;28;20104;-82
2022/04/13 00:21:47;;;;;;;27.73;14.05;;;;;;;;;;5055078;28;20028;-81
2022/04/13 00:24:13;;;;;;;27.55;14.30;;;;;;;;;;5053565;28;20023;-81
2022/04/13 00:26:40;;;;;;;20.45;14.45;;;;;;;;;;5067871;28;20394;-81
2022/04/13 00:29:06;;;;;;;23.77;14.38;;;;;;;;;;5062868;28;20039;-82
2022/04/13 00:31:32;;;;;;;23.13;14.10;;;;;;;;;;5064777;28;20040;-81
2022/04/13 00:33:58;;;;;;;33.63;14.50;;;;;;;;;;5061339;28;20039;-82
2022/04/13 00:36:24;;;;;;;22.63;14.23;;;;;;;;;;5067809;28;20479;-82
2022/04/13 00:38:50;;;;;;;28.15;14.82;;;;;;;;;;5057771;28;20519;-82
2022/04/13 00:41:17;;;;;;;25.23;14.98;;;;;;;;;;5047313;28;20079;-82
2022/04/13 00:43:43;;;;;;;23.58;15.10;;;;;;;;;;5059229;28;20043;-82
2022/04/13 00:46:09;;;;;;;30.00;16.02;;;;;;;;;;5070410;28;20025;-82
2022/04/13 00:48:37;;;;;;;32.90;15.77;;;;;;;;;;5066524;28;20031;-82
2022/04/13 00:51:04;;;;;;;27.65;16.20;;;;;;;;;;5065396;28;20059;-82
2022/04/13 00:53:30;;;;;;;28.67;15.98;;;;;;;;;;5069216;28;20036;-82
2022/04/13 00:55:57;;;;;;;25.58;15.57;;;;;;;;;;5071435;28;20052;-83
2022/04/13 00:58:24;;;;;;;29.85;15.02;;;;;;;;;;5065359;28;20062;-82
2022/04/13 01:00:50;;;;;;;26.95;14.32;;;;;;;;;;5060398;28;20366;-81
2022/04/13 01:03:18;;;;;;;26.85;14.23;;;;;;;;;;5070222;28;20029;-82
2022/04/13 01:05:45;;;;;;;32.03;13.73;;;;;;;;;;5071146;28;20044;-82
2022/04/13 01:08:13;;;;;;;25.70;14.80;;;;;;;;;;5068935;28;20021;-81
2022/04/13 01:10:42;;;;;;;21.60;14.02;;;;;;;;;;5063049;28;20058;-84
2022/04/13 01:13:08;;;;;;;24.75;13.35;;;;;;;;;;5064232;28;20079;-83
2022/04/13 01:15:34;;;;;;;23.42;13.63;;;;;;;;;;5073082;28;20041;-82
2022/04/13 01:18:00;;;;;;;25.88;12.90;;;;;;;;;;5065238;28;20044;-83
2022/04/13 01:20:26;;;;;;;23.25;13.15;;;;;;;;;;5056019;28;20091;-83
2022/04/13 01:22:53;;;;;;;25.70;12.73;;;;;;;;;;5041240;28;20048;-83
2022/04/13 01:25:19;;;;;;;22.02;12.98;;;;;;;;;;5042204;28;20036;-82
2022/04/13 01:27:45;;;;;;;26.98;13.00;;;;;;;;;;5061998;28;20362;-81
2022/04/13 01:30:12;;;;;;;20.23;11.57;;;;;;;;;;5061618;28;20529;-82
2022/04/13 01:32:38;;;;;;;27.63;11.70;;;;;;;;;;5059556;28;20029;-82
2022/04/13 01:35:04;;;;;;;20.95;10.93;;;;;;;;;;5069861;28;20028;-82
2022/04/13 01:37:30;;;;;;;20.75;10.73;;;;;;;;;;5043508;28;20486;-83
2022/04/13 01:39:56;;;;;;;25.70;11.07;;;;;;;;;;5060918;28;20037;-82
2022/04/13 01:42:22;;;;;;;17.35;9.80;;;;;;;;;;5059556;28;20025;-83
2022/04/13 01:44:50;;;;;;;20.38;10.80;;;;;;;;;;5059038;28;20033;-82
2022/04/13 01:47:16;;;;;;;20.23;11.00;;;;;;;;;;5060658;28;20025;-82
2022/04/13 01:49:43;;;;;;;15.32;10.18;;;;;;;;;;5056544;28;20514;-82
2022/04/13 01:52:09;;;;;;;19.05;9.90;;;;;;;;;;5061485;28;20111;-82
2022/04/13 01:54:35;;;;;;;21.33;10.50;;;;;;;;;;5059937;28;20037;-82
2022/04/13 01:57:02;;;;;;;21.13;10.35;;;;;;;;;;5061971;28;20040;-82
2022/04/13 01:59:28;;;;;;;24.27;10.95;;;;;;;;;;5061694;28;20037;-82
2022/04/13 02:01:54;;;;;;;22.17;10.88;;;;;;;;;;5066987;28;20055;-82
2022/04/13 02:04:21;;;;;;;27.27;11.55;;;;;;;;;;5063931;28;20033;-82
2022/04/13 02:06:48;;;;;;;25.45;11.82;;;;;;;;;;5068800;28;20033;-80
2022/04/13 02:09:14;;;;;;;15.75;11.07;;;;;;;;;;5039339;28;20033;-81
2022/04/13 02:11:43;;;;;;;20.00;11.30;;;;;;;;;;5058365;28;20036;-81
2022/04/13 02:14:09;;;;;;;24.50;11.07;;;;;;;;;;5061045;28;20112;-81
2022/04/13 02:16:35;;;;;;;26.85;11.57;;;;;;;;;;5064161;28;20075;-81
2022/04/13 02:19:01;;;;;;;20.75;12.38;;;;;;;;;;5067631;28;20032;-81
2022/04/13 02:21:27;;;;;;;25.02;11.35;;;;;;;;;;5060592;28;20393;-82
2022/04/13 02:23:53;;;;;;;25.48;12.38;;;;;;;;;;5060398;28;20021;-80
2022/04/13 02:26:19;;;;;;;20.08;10.88;;;;;;;;;;5062404;28;20090;-84
2022/04/13 02:28:46;;;;;;;20.27;11.07;;;;;;;;;;5061166;28;20166;-81
2022/04/13 02:31:12;;;;;;;24.50;12.02;;;;;;;;;;5059115;28;20040;-82
2022/04/13 02:33:39;;;;;;;26.92;12.68;;;;;;;;;;5055476;28;20037;-81
2022/04/13 02:36:06;;;;;;;21.80;12.10;;;;;;;;;;5058768;28;20032;-81
2022/04/13 02:38:32;;;;;;;24.73;12.38;;;;;;;;;;5054051;28;20031;-81
2022/04/13 02:40:59;;;;;;;22.60;12.27;;;;;;;;;;5038624;28;20389;-81
2022/04/13 02:43:27;;;;;;;24.13;11.63;;;;;;;;;;5053891;28;20057;-82
2022/04/13 02:45:53;;;;;;;27.15;12.65;;;;;;;;;;5054443;28;20457;-82
2022/04/13 02:48:19;;;;;;;25.48;12.30;;;;;;;;;;5045188;28;20056;-81
2022/04/13 02:50:45;;;;;;;21.75;12.60;;;;;;;;;;5061938;28;20071;-82
2022/04/13 02:53:11;;;;;;;26.10;13.13;;;;;;;;;;5062486;28;20445;-82
2022/04/13 02:55:37;;;;;;;24.15;13.77;;;;;;;;;;5064090;28;20043;-81
2022/04/13 02:58:03;;;;;;;24.13;13.02;;;;;;;;;;5062761;28;20041;-81
2022/04/13 03:00:29;;;;;;;27.02;14.15;;;;;;;;;;5066919;28;20137;-81
2022/04/13 03:02:55;;;;;;;29.02;13.90;;;;;;;;;;5063374;28;20040;-82
2022/04/13 03:05:21;;;;;;;24.90;14.07;;;;;;;;;;5074238;28;20036;-81
2022/04/13 03:07:47;;;;;;;26.05;14.85;;;;;;;;;;5060100;28;20029;-81
2022/04/13 03:10:13;;;;;;;27.00;13.95;;;;;;;;;;5063998;28;20409;-80
2022/04/13 03:12:42;;;;;;;23.67;14.23;;;;;;;;;;5069185;28;20092;-80
2022/04/13 03:15:08;;;;;;;24.45;13.80;;;;;;;;;;5067447;28;20219;-81
2022/04/13 03:17:34;;;;;;;25.85;12.88;;;;;;;;;;5062362;28;20461;-81
2022/04/13 03:20:01;;;;;;;23.05;13.00;;;;;;;;;;5039161;28;20025;-81
2022/04/13 03:22:27;;;;;;;30.10;14.15;;;;;;;;;;5061323;28;20051;-81
2022/04/13 03:24:54;;;;;;;27.90;13.52;;;;;;;;;;5058502;28;20466;-81
2022/04/13 03:27:20;;;;;;;26.33;13.63;;;;;;;;;;5066234;28;20072;-81
2022/04/13 03:29:46;;;;;;;27.17;14.65;;;;;;;;;;5055263;28;20060;-80
2022/04/13 03:32:12;;;;;;;24.65;14.48;;;;;;;;;;5041128;28;20519;-81
2022/04/13 03:34:38;;;;;;;29.52;14.48;;;;;;;;;;5059282;28;20108;-81
2022/04/13 03:37:05;;;;;;;25.90;16.40;;;;;;;;;;5062161;28;20032;-82
2022/04/13 03:39:31;;;;;;;25.92;14.98;;;;;;;;;;5048589;28;20082;-80
2022/04/13 03:41:57;;;;;;;27.48;15.55;;;;;;;;;;5062833;28;20481;-81
2022/04/13 03:44:23;;;;;;;25.52;14.88;;;;;;;;;;5066064;28;20124;-81
2022/04/13 03:46:50;;;;;;;24.85;16.20;;;;;;;;;;5067192;28;20059;-82
2022/04/13 03:49:16;;;;;;;30.52;16.98;;;;;;;;;;5056661;28;20041;-80
2022/04/13 03:51:42;;;;;;;26.25;17.10;;;;;;;;;;5041629;28;20131;-81
2022/04/13 03:54:08;;;;;;;27.52;17.60;;;;;;;;;;5048918;28;20093;-81
2022/04/13 03:56:36;;;;;;;30.92;17.90;;;;;;;;;;5045480;28;20033;-82
2022/04/13 03:59:02;;;;;;;34.13;18.05;;;;;;;;;;5045149;28;20163;-80
2022/04/13 04:01:28;;;;;;;34.30;17.33;;;;;;;;;;5043083;28;20111;-81
2022/04/13 04:03:54;;;;;;;29.45;17.90;;;;;;;;;;5048483;28;20043;-81
2022/04/13 04:06:21;;;;;;;33.20;18.65;;;;;;;;;;5045195;28;20429;-80
2022/04/13 04:08:47;;;;;;;38.08;18.67;;;;;;;;;;5044399;28;20043;-81
2022/04/13 04:11:14;;;;;;;33.95;17.55;;;;;;;;;;5037613;28;20053;-83
2022/04/13 04:13:40;;;;;;;33.95;18.63;;;;;;;;;;5047720;28;20108;-80
2022/04/13 04:16:06;;;;;;;60.88;18.90;;;;;;;;;;5042840;28;20093;-81
2022/04/13 04:18:32;;;;;;;34.00;18.77;;;;;;;;;;5038963;28;20091;-81
2022/04/13 04:20:58;;;;;;;63.13;20.38;;;;;;;;;;5039063;28;20162;-81
2022/04/13 04:23:24;;;;;;;78.63;22.00;;;;;;;;;;5040839;28;20154;-81
2022/04/13 04:25:50;;;;;;;37.03;18.65;;;;;;;;;;5038666;28;20040;-81
2022/04/13 04:28:16;;;;;;;47.83;19.15;;;;;;;;;;5039495;28;20035;-82
2022/04/13 04:30:42;;;;;;;31.08;18.20;;;;;;;;;;5045372;28;20024;-82
2022/04/13 04:33:09;;;;;;;29.65;17.30;;;;;;;;;;5047758;28;20598;-81
2022/04/13 04:35:35;;;;;;;36.88;19.48;;;;;;;;;;5047146;28;20025;-81
2022/04/13 04:38:02;;;;;;;32.67;18.67;;;;;;;;;;5048995;28;20021;-82
2022/04/13 04:40:28;;;;;;;30.00;19.02;;;;;;;;;;5036564;28;20029;-82
2022/04/13 04:42:55;;;;;;;27.02;17.23;;;;;;;;;;5046287;28;20151;-82
2022/04/13 04:45:21;;;;;;;33.85;18.13;;;;;;;;;;5038391;28;20707;-82
2022/04/13 04:47:49;;;;;;;29.55;18.17;;;;;;;;;;5050784;28;20409;-83
2022/04/13 04:50:15;;;;;;;30.05;18.67;;;;;;;;;;5049895;28;20285;-81
2022/04/13 04:52:42;;;;;;;32.90;18.83;;;;;;;;;;5036847;28;20036;-82
2022/04/13 04:55:09;;;;;;;31.08;18.45;;;;;;;;;;5026063;28;20077;-82
2022/04/13 04:57:35;;;;;;;31.42;19.05;;;;;;;;;;5045087;28;20052;-82
2022/04/13 05:00:01;;;;;;;33.10;19.63;;;;;;;;;;5043528;28;20156;-82
2022/04/13 05:02:27;;;;;;;33.47;18.95;;;;;;;;;;5046181;28;20033;-82
2022/04/13 05:04:53;;;;;;;28.98;19.02;;;;;;;;;;5039842;28;20083;-82
2022/04/13 05:07:19;;;;;;;32.00;19.70;;;;;;;;;;5038953;28;20029;-82
2022/04/13 05:09:45;;;;;;;32.42;19.45;;;;;;;;;;5046789;28;20398;-83
2022/04/13 05:12:11;;;;;;;33.17;19.58;;;;;;;;;;5058347;28;20108;-81
2022/04/13 05:14:37;;;;;;;33.40;20.75;;;;;;;;;;5022072;28;20044;-83
2022/04/13 05:17:04;;;;;;;37.70;21.05;;;;;;;;;;5043657;28;20032;-82
2022/04/13 05:19:30;;;;;;;37.17;21.58;;;;;;;;;;5042587;28;20033;-83
2022/04/13 05:21:56;;;;;;;32.38;20.77;;;;;;;;;;5038992;28;20550;-84
2022/04/13 05:24:22;;;;;;;40.03;20.50;;;;;;;;;;5044985;28;20060;-83
2022/04/13 05:26:50;;;;;;;45.55;22.45;;;;;;;;;;5048112;28;20067;-83
2022/04/13 05:29:16;;;;;;;34.05;21.48;;;;;;;;;;5028523;28;20487;-82
2022/04/13 05:31:42;;;;;;;34.60;21.60;;;;;;;;;;5037065;28;20040;-82
2022/04/13 05:34:08;;;;;;;35.38;21.70;;;;;;;;;;5044463;28;20166;-84
2022/04/13 05:36:34;;;;;;;34.03;21.45;;;;;;;;;;5040917;28;20037;-83
2022/04/13 05:39:00;;;;;;;39.63;20.15;;;;;;;;;;5048018;28;20032;-84
2022/04/13 05:41:26;;;;;;;39.75;20.77;;;;;;;;;;5052164;28;20031;-83
2022/04/13 05:43:52;;;;;;;36.17;20.73;;;;;;;;;;5048136;28;20038;-83
2022/04/13 05:46:18;;;;;;;32.75;19.55;;;;;;;;;;5046958;28;20497;-84
2022/04/13 05:48:45;;;;;;;30.58;19.20;;;;;;;;;;5049482;28;20061;-83
2022/04/13 05:51:11;;;;;;;37.63;19.35;;;;;;;;;;5060814;28;20045;-83
2022/04/13 05:53:37;;;;;;;31.50;18.20;;;;;;;;;;5065517;28;20500;-86
2022/04/13 05:56:04;;;;;;;33.72;19.00;;;;;;;;;;5067316;28;20112;-85
2022/04/13 05:58:30;;;;;;;29.98;18.08;;;;;;;;;;5058269;28;20559;-84
2022/04/13 06:00:56;;;;;;;33.65;18.58;;;;;;;;;;5060431;28;20116;-86
2022/04/13 06:03:23;;;;;;;26.83;17.10;;;;;;;;;;5061856;28;20028;-86
2022/04/13 06:05:49;;;;;;;29.83;16.80;;;;;;;;;;5054707;28;20095;-85
2022/04/13 06:08:15;;;;;;;30.38;16.08;;;;;;;;;;5063539;28;20025;-84
2022/04/13 06:10:41;;;;;;;36.42;16.45;;;;;;;;;;5057378;28;20789;-83
2022/04/13 06:13:07;;;;;;;25.85;14.90;;;;;;;;;;5056349;28;20020;-83
2022/04/13 06:15:33;;;;;;;21.60;14.73;;;;;;;;;;5070096;28;20032;-84
2022/04/13 06:18:00;;;;;;;27.77;15.30;;;;;;;;;;5071951;28;20052;-85
2022/04/13 06:20:26;;;;;;;25.90;14.70;;;;;;;;;;5083198;28;20032;-84
2022/04/13 06:22:52;;;;;;;23.88;14.27;;;;;;;;;;5095786;28;20059;-85
2022/04/13 06:25:18;;;;;;;21.13;13.27;;;;;;;;;;5097691;28;20087;-84
2022/04/13 06:27:44;;;;;;;125.75;16.73;;;;;;;;;;5082301;28;20033;-83
2022/04/13 06:30:11;;;;;;;26.10;13.75;;;;;;;;;;5070504;28;20370;-83
2022/04/13 06:32:41;;;;;;;25.10;11.15;;;;;;;;;;5065244;28;20084;-84
2022/04/13 06:35:08;;;;;;;18.83;11.30;;;;;;;;;;5062695;28;20036;-85
2022/04/13 06:37:38;;;;;;;21.95;12.80;;;;;;;;;;5060738;28;20029;-83
2022/04/13 06:40:05;;;;;;;23.45;12.30;;;;;;;;;;5059441;28;20032;-84
2022/04/13 06:42:34;;;;;;;23.42;12.35;;;;;;;;;;5057528;28;20033;-86
2022/04/13 06:45:00;;;;;;;20.73;11.63;;;;;;;;;;5063719;28;20037;-82
2022/04/13 06:47:29;;;;;;;21.38;10.90;;;;;;;;;;5044964;28;20482;-86
2022/04/13 06:49:55;;;;;;;21.23;11.57;;;;;;;;;;5054745;28;20084;-83
2022/04/13 06:52:21;;;;;;;16.60;10.02;;;;;;;;;;5038420;28;20033;-85
2022/04/13 06:54:47;;;;;;;18.80;9.50;;;;;;;;;;5042946;28;20056;-82
2022/04/13 06:57:14;;;;;;;19.23;9.50;;;;;;;;;;5057743;28;20060;-83
2022/04/13 06:59:40;;;;;;;18.30;10.35;;;;;;;;;;5047925;28;20559;-82
2022/04/13 07:02:12;;;;;;;20.52;10.32;;;;;;;;;;5052341;28;20041;-86
2022/04/13 07:04:39;;;;;;;15.98;8.43;;;;;;;;;;5045213;28;20037;-84
2022/04/13 07:07:05;;;;;;;12.38;7.32;;;;;;;;;;5042748;28;20032;-82
2022/04/13 07:09:31;;;;;;;15.45;7.72;;;;;;;;;;5044089;28;20037;-84
2022/04/13 07:11:57;;;;;;;20.02;7.70;;;;;;;;;;5046527;28;20037;-86
2022/04/13 07:14:23;;;;;;;16.15;8.23;;;;;;;;;;5043135;28;20132;-83
2022/04/13 07:16:49;;;;;;;17.35;7.63;;;;;;;;;;5044617;28;20036;-86
2022/04/13 07:19:15;;;;;;;14.07;6.78;;;;;;;;;;5034100;28;20029;-84
2022/04/13 07:21:41;;;;;;;18.27;7.50;;;;;;;;;;5044741;28;20044;-85
2022/04/13 07:24:07;;;;;;;13.68;6.38;;;;;;;;;;5063151;28;20078;-86
2022/04/13 07:26:33;;;;;;;15.32;7.10;;;;;;;;;;5068328;28;20037;-84
2022/04/13 07:28:59;;;;;;;13.10;5.95;;;;;;;;;;5036527;28;20029;-86
2022/04/13 07:31:26;;;;;;;16.63;6.25;;;;;;;;;;5046443;28;20033;-86
2022/04/13 07:33:52;;;;;;;12.05;6.50;;;;;;;;;;5041283;28;20033;-87
2022/04/13 07:36:20;;;;;;;16.20;7.28;;;;;;;;;;5033277;28;20037;-85
2022/04/13 07:38:47;;;;;;;15.48;7.45;;;;;;;;;;5039811;28;20443;-85
2022/04/13 07:41:13;;;;;;;17.48;6.97;;;;;;;;;;5038302;28;20582;-86
2022/04/13 07:43:39;;;;;;;15.07;7.45;;;;;;;;;;5042720;28;20042;-89
2022/04/13 07:46:05;;;;;;;22.38;7.60;;;;;;;;;;5033235;28;20038;-83
2022/04/13 07:48:31;;;;;;;13.63;7.60;;;;;;;;;;5035181;28;20029;-83
2022/04/13 07:50:57;;;;;;;14.32;6.90;;;;;;;;;;5036678;28;20048;-89
2022/04/13 07:53:23;;;;;;;15.25;7.45;;;;;;;;;;5037245;28;20029;-79
2022/04/13 07:55:49;;;;;;;15.40;7.28;;;;;;;;;;5019677;28;20600;-81
2022/04/13 07:58:16;;;;;;;16.00;7.20;;;;;;;;;;5037577;28;20040;-81
2022/04/13 08:00:42;;;;;;;20.00;7.43;;;;;;;;;;5044231;28;20043;-81
2022/04/13 08:03:08;;;;;;;16.55;7.07;;;;;;;;;;5039249;28;20066;-84
2022/04/13 08:05:34;;;;;;;14.52;6.97;;;;;;;;;;5035156;28;20470;-82
2022/04/13 08:08:01;;;;;;;18.23;6.75;;;;;;;;;;5034120;28;20407;-81
2022/04/13 08:10:27;;;;;;;16.30;7.15;;;;;;;;;;5035163;28;20411;-82
2022/04/13 08:12:53;;;;;;;14.35;6.82;;;;;;;;;;5037550;28;20033;-84
2022/04/13 08:15:20;;;;;;;16.55;6.70;;;;;;;;;;5022642;28;20030;-81
2022/04/13 08:17:46;;;;;;;18.67;6.72;;;;;;;;;;5033113;28;20047;-82
2022/04/13 08:20:13;;;;;;;18.30;6.47;;;;;;;;;;5033603;28;20029;-82
2022/04/13 08:22:41;;;;;;;17.08;6.57;;;;;;;;;;5032645;28;20044;-84
2022/04/13 08:25:07;;;;;;;17.23;7.40;;;;;;;;;;5049255;28;20037;-82
2022/04/13 08:27:33;;;;;;;14.10;6.40;;;;;;;;;;5040757;28;20037;-83
2022/04/13 08:29:59;;;;;;;14.77;7.25;;;;;;;;;;5027813;28;20033;-84
2022/04/13 08:32:25;;;;;;;15.80;7.18;;;;;;;;;;5057757;28;20035;-81
2022/04/13 08:34:52;;;;;;;14.63;6.82;;;;;;;;;;5048829;28;20061;-81
2022/04/13 08:37:21;;;;;;;14.65;7.28;;;;;;;;;;5054201;28;20110;-82
2022/04/13 08:39:47;;;;;;;16.50;8.82;;;;;;;;;;5058172;28;20039;-82
2022/04/13 08:42:13;;;;;;;17.23;8.30;;;;;;;;;;5057056;28;20111;-81
2022/04/13 08:44:53;;;;;;;16.02;7.82;;;;;;;;;;5056473;28;20029;-80
2022/04/13 08:47:23;;;;;;;20.05;8.25;;;;;;;;;;5039176;28;20103;-82
2022/04/13 08:49:50;;;;;;;13.90;7.67;;;;;;;;;;5038351;28;20313;-80
2022/04/13 08:52:30;;;;;;;19.42;8.75;;;;;;;;;;5036830;28;20049;-81
2022/04/13 08:55:03;;;;;;;25.10;9.93;;;;;;;;;;5017240;28;20025;-80
2022/04/13 08:57:30;;;;;;;17.67;8.98;;;;;;;;;;5033501;28;20459;-80
2022/04/13 08:59:56;;;;;;;17.80;8.90;;;;;;;;;;5035101;28;20036;-83
2022/04/13 09:02:28;;;;;;;17.48;8.82;;;;;;;;;;5035274;28;20116;-80
2022/04/13 09:04:57;;;;;;;20.58;9.35;;;;;;;;;;5034644;28;20021;-83
2022/04/13 09:07:23;;;;;;;21.00;9.48;;;;;;;;;;5054030;28;20444;-80
2022/04/13 09:09:51;;;;;;;18.02;8.65;;;;;;;;;;5054939;28;20111;-81
2022/04/13 09:12:19;;;;;;;15.88;8.90;;;;;;;;;;5054928;28;20483;-81
2022/04/13 09:14:45;;;;;;;18.98;8.93;;;;;;;;;;5052450;28;20037;-80
2022/04/13 09:17:12;;;;;;;18.80;9.02;;;;;;;;;;5052218;28;20032;-81
2022/04/13 09:19:38;;;;;;;25.60;9.68;;;;;;;;;;5036780;28;20482;-83
2022/04/13 09:22:05;;;;;;;17.58;9.23;;;;;;;;;;5035738;28;20036;-81
2022/04/13 09:24:32;;;;;;;21.48;9.10;;;;;;;;;;5036000;28;20390;-82
2022/04/13 09:27:01;;;;;;;18.42;9.00;;;;;;;;;;5038337;28;20037;-81
2022/04/13 09:29:27;;;;;;;17.55;9.23;;;;;;;;;;5034798;28;20037;-82
2022/04/13 09:31:53;;;;;;;29.90;8.52;;;;;;;;;;5033011;28;20026;-86
2022/04/13 09:34:19;;;;;;;14.60;8.52;;;;;;;;;;5034526;28;20025;-79
2022/04/13 09:36:46;;;;;;;17.10;8.55;;;;;;;;;;5035570;28;20080;-81
2022/04/13 09:39:12;;;;;;;18.25;8.63;;;;;;;;;;5050347;28;20032;-81
2022/04/13 09:41:38;;;;;;;14.35;8.65;;;;;;;;;;5054362;28;20040;-81
2022/04/13 09:44:14;;;;;;;17.90;9.15;;;;;;;;;;5053443;28;20104;-81
2022/04/13 09:46:41;;;;;;;19.90;9.38;;;;;;;;;;5044106;28;20029;-79
2022/04/13 09:49:07;;;;;;;23.70;9.38;;;;;;;;;;5015181;28;20021;-81
2022/04/13 09:51:37;;;;;;;19.60;9.10;;;;;;;;;;5033846;28;20460;-82
2022/04/13 09:54:10;;;;;;;19.30;9.33;;;;;;;;;;5033981;28;20503;-81
2022/04/13 09:56:38;;;;;;;18.13;8.93;;;;;;;;;;5015618;28;20036;-81
2022/04/13 09:59:07;;;;;;;34.20;11.15;;;;;;;;;;5052328;28;20033;-82
2022/04/13 10:01:34;;;;;;;21.40;10.73;;;;;;;;;;5035662;28;20413;-81
2022/04/13 10:04:00;;;;;;;17.98;9.45;;;;;;;;;;5053439;28;20041;-83
2022/04/13 10:06:35;;;;;;;20.10;9.60;;;;;;;;;;5042109;28;20026;-81
2022/04/13 10:09:05;;;;;;;16.95;8.65;;;;;;;;;;5048738;28;20029;-80
2022/04/13 10:11:31;;;;;;;18.67;9.10;;;;;;;;;;5054027;28;20442;-79
2022/04/13 10:14:00;;;;;;;16.88;8.15;;;;;;;;;;5053888;28;20033;-84
2022/04/13 10:16:31;;;;;;;16.85;9.00;;;;;;;;;;5045215;28;20029;-82
2022/04/13 10:18:59;;;;;;;16.27;8.23;;;;;;;;;;5042000;28;20106;-83
2022/04/13 10:21:43;;;;;;;19.40;8.68;;;;;;;;;;5040584;28;20099;-82
2022/04/13 10:24:23;;;;;;;15.82;8.05;;;;;;;;;;5034171;28;20045;-83
2022/04/13 10:27:01;;;;;;;20.40;8.35;;;;;;;;;;5047241;28;20067;-82
2022/04/13 10:29:27;;;;;;;16.02;7.88;;;;;;;;;;5054437;28;20033;-83
2022/04/13 10:32:13;;;;;;;16.85;8.30;;;;;;;;;;5026762;28;20038;-82
2022/04/13 10:34:40;;;;;;;15.85;7.50;;;;;;;;;;5032830;28;20124;-85
2022/04/13 10:37:07;;;;;;;17.42;8.77;;;;;;;;;;5047713;28;20033;-83
2022/04/13 10:39:33;;;;;;;19.35;8.55;;;;;;;;;;5048624;28;20515;-81
2022/04/13 10:42:00;;;;;;;19.35;8.25;;;;;;;;;;5049120;28;20048;-84
2022/04/13 10:44:30;;;;;;;22.30;9.75;;;;;;;;;;5016625;28;20147;-84
2022/04/13 10:47:01;;;;;;;19.27;8.90;;;;;;;;;;5030683;28;20399;-85
2022/04/13 10:49:30;;;;;;;23.45;9.20;;;;;;;;;;5034294;28;20048;-74
2022/04/13 10:52:02;;;;;;;22.48;9.48;;;;;;;;;;5056483;28;20053;-80
2022/04/13 10:54:31;;;;;;;19.48;10.30;;;;;;;;;;5055335;28;20032;-81
2022/04/13 10:56:58;;;;;;;22.15;10.60;;;;;;;;;;5051450;28;20029;-82
2022/04/13 10:59:32;;;;;;;26.40;11.50;;;;;;;;;;5056998;28;20036;-83
2022/04/13 11:02:00;;;;;;;19.90;10.23;;;;;;;;;;5065353;28;20029;-84
2022/04/13 11:04:29;;;;;;;23.35;10.10;;;;;;;;;;5059366;28;20029;-81
2022/04/13 11:06:55;;;;;;;22.02;10.70;;;;;;;;;;5044827;28;20032;-83
2022/04/13 11:09:25;;;;;;;24.58;9.70;;;;;;;;;;5060991;28;20142;-81
2022/04/13 11:11:52;;;;;;;21.88;8.52;;;;;;;;;;5062903;28;20021;-80
2022/04/13 11:14:22;;;;;;;17.55;8.30;;;;;;;;;;5056962;28;20398;-82
2022/04/13 11:16:52;;;;;;;15.63;8.23;;;;;;;;;;5073169;28;20115;-82
2022/04/13 11:19:19;;;;;;;19.70;8.90;;;;;;;;;;5057017;28;20107;-82
2022/04/13 11:21:51;;;;;;;15.15;7.35;;;;;;;;;;5055254;28;20063;-82
2022/04/13 11:24:34;;;;;;;15.48;7.22;;;;;;;;;;5061246;28;20055;-82
2022/04/13 11:27:00;;;;;;;18.33;7.00;;;;;;;;;;5058749;28;20060;-82
2022/04/13 11:29:32;;;;;;;14.85;6.97;;;;;;;;;;5075340;28;20040;-82
2022/04/13 11:32:02;;;;;;;17.38;7.25;;;;;;;;;;5043899;28;20083;-83
2022/04/13 11:34:28;;;;;;;17.77;7.88;;;;;;;;;;5055752;28;20021;-82
2022/04/13 11:36:58;;;;;;;20.35;7.40;;;;;;;;;;5022280;28;20036;-82
2022/04/13 11:39:43;;;;;;;19.42;7.35;;;;;;;;;;5056321;28;20036;-82
2022/04/13 11:42:18;;;;;;;17.88;7.03;;;;;;;;;;5056833;28;20129;-81
2022/04/13 11:44:48;;;;;;;17.70;7.20;;;;;;;;;;5055461;28;20029;-83
2022/04/13 11:47:15;;;;;;;15.63;5.75;;;;;;;;;;5055943;28;20474;-81
2022/04/13 11:49:55;;;;;;;17.70;5.80;;;;;;;;;;5054219;28;20108;-82
2022/04/13 11:52:38;;;;;;;14.60;5.18;;;;;;;;;;5054769;28;20037;-81
2022/04/13 11:55:14;;;;;;;15.10;5.38;;;;;;;;;;5053240;28;20094;-80
2022/04/13 11:58:02;;;;;;;21.17;5.82;;;;;;;;;;5054674;28;20033;-81
2022/04/13 12:00:41;;;;;;;20.77;7.32;;;;;;;;;;5033204;28;20037;-81
2022/04/13 12:03:11;;;;;;;15.82;7.53;;;;;;;;;;5055592;28;20050;-83
2022/04/13 12:05:41;;;;;;;15.88;6.65;;;;;;;;;;5053874;28;20354;-81
2022/04/13 12:08:18;;;;;;;17.20;8.57;;;;;;;;;;5052011;28;20091;-81
2022/04/13 12:11:04;;;;;;;17.63;9.20;;;;;;;;;;5044692;28;20033;-83
2022/04/13 12:13:33;;;;;;;15.88;8.70;;;;;;;;;;5040836;28;20021;-84
2022/04/13 12:15:59;;;;;;;23.52;9.43;;;;;;;;;;5035871;28;20475;-81
2022/04/13 12:18:26;;;;;;;16.45;9.07;;;;;;;;;;5030813;28;20025;-81
2022/04/13 12:20:53;;;;;;;20.80;9.52;;;;;;;;;;5014162;28;20029;-81
2022/04/13 12:23:26;;;;;;;22.90;10.60;;;;;;;;;;5032212;28;20037;-83
2022/04/13 12:25:56;;;;;;;22.02;9.35;;;;;;;;;;5031874;28;20030;-81
2022/04/13 12:28:25;;;;;;;17.92;10.02;;;;;;;;;;5033284;28;20441;-82
2022/04/13 12:31:10;;;;;;;17.90;9.50;;;;;;;;;;5045721;28;20029;-81
2022/04/13 12:33:37;;;;;;;18.70;9.90;;;;;;;;;;5033880;28;20025;-81
2022/04/13 12:36:04;;;;;;;20.85;9.57;;;;;;;;;;5035470;28;20329;-80
2022/04/13 12:38:30;;;;;;;17.67;9.10;;;;;;;;;;5040730;28;20029;-81
2022/04/13 12:41:03;;;;;;;18.58;9.63;;;;;;;;;;5054206;28;20149;-81
2022/04/13 12:43:29;;;;;;;18.45;8.73;;;;;;;;;;5040556;28;20041;-81
2022/04/13 12:45:55;;;;;;;19.70;9.25;;;;;;;;;;5043660;28;20171;-82
2022/04/13 12:48:25;;;;;;;23.05;9.10;;;;;;;;;;5054639;28;20433;-79
2022/04/13 12:50:58;;;;;;;24.52;8.65;;;;;;;;;;5069267;28;20559;-81
2022/04/13 12:53:25;;;;;;;25.38;8.85;;;;;;;;;;5066653;28;20037;-81
2022/04/13 12:55:57;;;;;;;22.10;8.75;;;;;;;;;;5060273;28;20086;-80
2022/04/13 12:58:23;;;;;;;18.95;8.85;;;;;;;;;;5056463;28;20025;-81
2022/04/13 13:00:51;;;;;;;20.85;9.60;;;;;;;;;;5060261;28;20035;-81
2022/04/13 13:03:18;;;;;;;18.23;8.57;;;;;;;;;;5056304;28;20029;-81
2022/04/13 13:05:44;;;;;;;18.45;7.30;;;;;;;;;;5071877;28;20039;-80
2022/04/13 13:08:10;;;;;;;26.25;9.93;;;;;;;;;;5055546;28;20017;-83
2022/04/13 13:10:36;;;;;;;19.80;7.88;;;;;;;;;;5056434;28;20089;-82
2022/04/13 13:13:10;;;;;;;23.23;8.95;;;;;;;;;;5062938;28;20078;-80
2022/04/13 13:15:36;;;;;;;14.82;6.88;;;;;;;;;;5038960;28;20091;-82
2022/04/13 13:18:06;;;;;;;15.07;6.45;;;;;;;;;;5050565;28;20033;-82
2022/04/13 13:20:32;;;;;;;15.95;7.35;;;;;;;;;;5050736;28;20017;-79
2022/04/13 13:22:59;;;;;;;13.20;6.90;;;;;;;;;;5052380;28;20033;-82
2022/04/13 13:25:24;;;;;;;16.00;6.95;;;;;;;;;;5050646;28;20057;-83
2022/04/13 13:27:54;;;;;;;14.32;6.10;;;;;;;;;;5050557;28;20095;-84
2022/04/13 13:30:21;;;;;;;12.88;5.85;;;;;;;;;;5049893;28;20104;-85
2022/04/13 13:32:54;;;;;;;14.98;6.63;;;;;;;;;;5051009;28;20044;-84
2022/04/13 13:35:22;;;;;;;14.27;6.53;;;;;;;;;;5051445;28;20017;-81
2022/04/13 13:37:49;;;;;;;16.13;5.75;;;;;;;;;;5066592;28;20350;-82
2022/04/13 13:40:29;;;;;;;9.05;4.30;;;;;;;;;;5072640;28;20032;-82
2022/04/13 13:42:56;;;;;;;8.27;3.60;;;;;;;;;;5069948;28;20431;-82
2022/04/13 13:45:22;;;;;;;10.65;4.80;;;;;;;;;;5054021;28;20025;-80
2022/04/13 13:47:48;;;;;;;7.15;4.28;;;;;;;;;;5053542;28;20024;-85
2022/04/13 13:50:14;;;;;;;10.43;4.65;;;;;;;;;;5052689;28;20506;-80
2022/04/13 13:52:40;;;;;;;8.82;4.05;;;;;;;;;;5053011;28;20025;-81
2022/04/13 13:55:07;;;;;;;10.52;3.70;;;;;;;;;;5033688;28;20038;-82
2022/04/13 13:57:33;;;;;;;7.93;3.55;;;;;;;;;;5034591;28;20120;-83
2022/04/13 13:59:59;;;;;;;13.90;4.25;;;;;;;;;;5016666;28;20078;-84
2022/04/13 14:02:25;;;;;;;10.63;4.32;;;;;;;;;;5033516;28;20064;-81
2022/04/13 14:04:52;;;;;;;12.10;3.40;;;;;;;;;;5036593;28;20030;-83
2022/04/13 14:07:18;;;;;;;9.45;4.13;;;;;;;;;;5043314;28;20113;-84
2022/04/13 14:09:44;;;;;;;13.98;4.50;;;;;;;;;;5052922;28;20029;-83
2022/04/13 14:12:10;;;;;;;112.85;9.07;;;;;;;;;;5035755;28;20398;-79
2022/04/13 14:14:36;;;;;;;16.85;5.55;;;;;;;;;;5041424;28;20048;-84
2022/04/13 14:17:04;;;;;;;13.00;5.75;;;;;;;;;;5038457;28;20491;-77
2022/04/13 14:19:33;;;;;;;18.35;5.22;;;;;;;;;;5035289;28;20040;-76
2022/04/13 14:21:59;;;;;;;11.20;4.97;;;;;;;;;;5042824;28;20037;-76
2022/04/13 14:24:25;;;;;;;15.15;5.97;;;;;;;;;;5021682;28;20151;-77
2022/04/13 14:26:51;;;;;;;14.85;6.75;;;;;;;;;;5036391;28;20041;-76